Cheyenne River Reservation, South Dakota
Current Conditions -  °F | °C
As of 1:52 PM on Friday 28 Nov 2014 (Local Time) from KMBG Reporting Station
Clear Clear  
Wind Chill: 17°   Ceiling: Unl
Heat Index: 27°   Visibility: 10mi
Dew Point: 20°   Wind: 12mph
Humidity: 75%   Direction: 130°SE
Pressure: 29.59"   Gusts: NA
Location:  45.0005°N, 101.234°W
Report Text: KMBG 282052Z AUTO 13010KT 10SM CLR M03/M07 A2959 RMK AO2 SLP047 T10281067 56026
Loading
Personal Weather Stations






























Interactive Weather Map New forecast layout! Learn more

10-Day Weather Forecast

Advertisements
Track Severe Weather on mobile